sensor_id;sensor_type;location;lat;lon;timestamp;temperature;humidity
65836;SHT30;52595;51.608;7.216;2024-01-30T00:01:54;6.95;97.74
65836;SHT30;52595;51.608;7.216;2024-01-30T00:04:19;7.01;97.74
65836;SHT30;52595;51.608;7.216;2024-01-30T00:06:44;7.01;97.53
65836;SHT30;52595;51.608;7.216;2024-01-30T00:09:10;6.91;97.09
65836;SHT30;52595;51.608;7.216;2024-01-30T00:11:39;6.84;97.30
65836;SHT30;52595;51.608;7.216;2024-01-30T00:14:04;6.77;97.72
65836;SHT30;52595;51.608;7.216;2024-01-30T00:16:30;6.88;98.28
65836;SHT30;52595;51.608;7.216;2024-01-30T00:18:55;6.81;98.06
65836;SHT30;52595;51.608;7.216;2024-01-30T00:21:21;6.81;97.98
65836;SHT30;52595;51.608;7.216;2024-01-30T00:23:47;6.78;97.95
65836;SHT30;52595;51.608;7.216;2024-01-30T00:26:12;6.76;98.24
65836;SHT30;52595;51.608;7.216;2024-01-30T00:28:40;6.81;98.22
65836;SHT30;52595;51.608;7.216;2024-01-30T00:31:05;6.77;97.91
65836;SHT30;52595;51.608;7.216;2024-01-30T00:33:31;6.80;98.39
65836;SHT30;52595;51.608;7.216;2024-01-30T00:35:56;6.83;98.08
65836;SHT30;52595;51.608;7.216;2024-01-30T00:38:22;6.88;97.80
65836;SHT30;52595;51.608;7.216;2024-01-30T00:40:47;6.94;97.66
65836;SHT30;52595;51.608;7.216;2024-01-30T00:43:13;6.97;97.70
65836;SHT30;52595;51.608;7.216;2024-01-30T00:45:38;6.97;97.39
65836;SHT30;52595;51.608;7.216;2024-01-30T00:48:04;6.95;97.34
65836;SHT30;52595;51.608;7.216;2024-01-30T00:50:29;6.95;97.62
65836;SHT30;52595;51.608;7.216;2024-01-30T00:52:54;6.97;97.56
65836;SHT30;52595;51.608;7.216;2024-01-30T00:55:20;6.97;97.45
65836;SHT30;52595;51.608;7.216;2024-01-30T00:57:45;6.99;97.44
65836;SHT30;52595;51.608;7.216;2024-01-30T01:00:12;7.08;97.18
65836;SHT30;52595;51.608;7.216;2024-01-30T01:02:38;7.07;97.35
65836;SHT30;52595;51.608;7.216;2024-01-30T01:05:06;7.11;97.19
65836;SHT30;52595;51.608;7.216;2024-01-30T01:07:32;7.09;96.96
65836;SHT30;52595;51.608;7.216;2024-01-30T01:09:57;7.16;96.92
65836;SHT30;52595;51.608;7.216;2024-01-30T01:12:23;7.21;96.70
65836;SHT30;52595;51.608;7.216;2024-01-30T01:14:48;7.22;96.65
65836;SHT30;52595;51.608;7.216;2024-01-30T01:17:13;7.22;96.62
65836;SHT30;52595;51.608;7.216;2024-01-30T01:19:39;7.14;96.49
65836;SHT30;52595;51.608;7.216;2024-01-30T01:22:04;7.07;96.64
65836;SHT30;52595;51.608;7.216;2024-01-30T01:24:33;6.99;96.78
65836;SHT30;52595;51.608;7.216;2024-01-30T01:26:59;6.92;96.95
65836;SHT30;52595;51.608;7.216;2024-01-30T01:29:24;6.88;97.26
65836;SHT30;52595;51.608;7.216;2024-01-30T01:31:54;6.85;97.50
65836;SHT30;52595;51.608;7.216;2024-01-30T01:34:21;6.83;97.50
65836;SHT30;52595;51.608;7.216;2024-01-30T01:36:47;6.85;97.59
65836;SHT30;52595;51.608;7.216;2024-01-30T01:39:12;6.77;97.37
65836;SHT30;52595;51.608;7.216;2024-01-30T01:41:37;6.78;97.74
65836;SHT30;52595;51.608;7.216;2024-01-30T01:44:03;6.77;97.76
65836;SHT30;52595;51.608;7.216;2024-01-30T01:46:30;6.74;97.77
65836;SHT30;52595;51.608;7.216;2024-01-30T01:48:57;6.77;97.97
65836;SHT30;52595;51.608;7.216;2024-01-30T01:51:24;6.74;97.70
65836;SHT30;52595;51.608;7.216;2024-01-30T01:53:53;6.81;97.89
65836;SHT30;52595;51.608;7.216;2024-01-30T01:56:19;6.87;97.30
65836;SHT30;52595;51.608;7.216;2024-01-30T01:58:45;6.94;97.41
65836;SHT30;52595;51.608;7.216;2024-01-30T02:01:13;6.94;97.19
65836;SHT30;52595;51.608;7.216;2024-01-30T02:03:39;6.91;97.29
65836;SHT30;52595;51.608;7.216;2024-01-30T02:06:06;6.99;97.06
65836;SHT30;52595;51.608;7.216;2024-01-30T02:08:31;6.95;96.83
65836;SHT30;52595;51.608;7.216;2024-01-30T02:10:57;6.95;97.08
65836;SHT30;52595;51.608;7.216;2024-01-30T02:13:22;6.92;96.83
65836;SHT30;52595;51.608;7.216;2024-01-30T02:15:51;6.89;97.33
65836;SHT30;52595;51.608;7.216;2024-01-30T02:18:16;6.87;97.11
65836;SHT30;52595;51.608;7.216;2024-01-30T02:20:42;6.80;96.86
65836;SHT30;52595;51.608;7.216;2024-01-30T02:23:09;6.85;97.44
65836;SHT30;52595;51.608;7.216;2024-01-30T02:25:39;6.87;97.27
65836;SHT30;52595;51.608;7.216;2024-01-30T02:28:10;6.84;97.06
65836;SHT30;52595;51.608;7.216;2024-01-30T02:30:36;6.89;97.04
65836;SHT30;52595;51.608;7.216;2024-01-30T02:33:01;6.98;96.95
65836;SHT30;52595;51.608;7.216;2024-01-30T02:35:26;6.99;96.78
65836;SHT30;52595;51.608;7.216;2024-01-30T02:37:52;6.95;95.89
65836;SHT30;52595;51.608;7.216;2024-01-30T02:40:17;6.92;96.85
65836;SHT30;52595;51.608;7.216;2024-01-30T02:42:43;6.98;96.79
65836;SHT30;52595;51.608;7.216;2024-01-30T02:45:09;6.92;96.49
65836;SHT30;52595;51.608;7.216;2024-01-30T02:47:35;6.85;96.46
65836;SHT30;52595;51.608;7.216;2024-01-30T02:50:00;6.76;96.79
65836;SHT30;52595;51.608;7.216;2024-01-30T02:52:25;6.76;97.05
65836;SHT30;52595;51.608;7.216;2024-01-30T02:54:51;6.70;97.07
65836;SHT30;52595;51.608;7.216;2024-01-30T02:57:16;6.71;97.42
65836;SHT30;52595;51.608;7.216;2024-01-30T02:59:41;6.60;96.86
65836;SHT30;52595;51.608;7.216;2024-01-30T03:02:07;6.54;97.26
65836;SHT30;52595;51.608;7.216;2024-01-30T03:04:32;6.58;97.64
65836;SHT30;52595;51.608;7.216;2024-01-30T03:06:58;6.70;97.79
65836;SHT30;52595;51.608;7.216;2024-01-30T03:09:23;6.63;97.14
65836;SHT30;52595;51.608;7.216;2024-01-30T03:11:49;6.61;97.05
65836;SHT30;52595;51.608;7.216;2024-01-30T03:14:14;6.68;97.53
65836;SHT30;52595;51.608;7.216;2024-01-30T03:16:39;6.61;97.05
65836;SHT30;52595;51.608;7.216;2024-01-30T03:19:08;6.66;97.60
65836;SHT30;52595;51.608;7.216;2024-01-30T03:21:34;6.57;97.24
65836;SHT30;52595;51.608;7.216;2024-01-30T03:24:00;6.56;97.30
65836;SHT30;52595;51.608;7.216;2024-01-30T03:26:25;6.50;97.10
65836;SHT30;52595;51.608;7.216;2024-01-30T03:28:50;6.44;97.51
65836;SHT30;52595;51.608;7.216;2024-01-30T03:31:16;6.44;97.69
65836;SHT30;52595;51.608;7.216;2024-01-30T03:33:42;6.37;97.63
65836;SHT30;52595;51.608;7.216;2024-01-30T03:36:08;6.34;97.82
65836;SHT30;52595;51.608;7.216;2024-01-30T03:38:34;6.26;97.97
65836;SHT30;52595;51.608;7.216;2024-01-30T03:41:00;6.24;98.27
65836;SHT30;52595;51.608;7.216;2024-01-30T03:43:26;6.27;98.16
65836;SHT30;52595;51.608;7.216;2024-01-30T03:45:51;6.34;98.77
65836;SHT30;52595;51.608;7.216;2024-01-30T03:48:17;6.40;98.13
65836;SHT30;52595;51.608;7.216;2024-01-30T03:50:42;6.46;98.19
65836;SHT30;52595;51.608;7.216;2024-01-30T03:53:08;6.50;98.06
65836;SHT30;52595;51.608;7.216;2024-01-30T03:55:34;6.56;98.10
65836;SHT30;52595;51.608;7.216;2024-01-30T03:57:59;6.64;97.29
65836;SHT30;52595;51.608;7.216;2024-01-30T04:00:25;6.70;97.55
65836;SHT30;52595;51.608;7.216;2024-01-30T04:02:50;6.78;97.09
65836;SHT30;52595;51.608;7.216;2024-01-30T04:05:16;6.83;96.53
65836;SHT30;52595;51.608;7.216;2024-01-30T04:07:42;6.81;96.57
65836;SHT30;52595;51.608;7.216;2024-01-30T04:10:09;6.78;96.64
65836;SHT30;52595;51.608;7.216;2024-01-30T04:12:35;6.89;96.50
65836;SHT30;52595;51.608;7.216;2024-01-30T04:15:00;6.92;96.40
65836;SHT30;52595;51.608;7.216;2024-01-30T04:17:26;7.04;96.00
65836;SHT30;52595;51.608;7.216;2024-01-30T04:19:51;7.05;95.94
65836;SHT30;52595;51.608;7.216;2024-01-30T04:22:17;7.04;95.68
65836;SHT30;52595;51.608;7.216;2024-01-30T04:24:42;6.99;95.81
65836;SHT30;52595;51.608;7.216;2024-01-30T04:27:07;7.02;95.81
65836;SHT30;52595;51.608;7.216;2024-01-30T04:29:33;7.04;95.82
65836;SHT30;52595;51.608;7.216;2024-01-30T04:31:59;6.97;96.02
65836;SHT30;52595;51.608;7.216;2024-01-30T04:34:25;6.95;96.11
65836;SHT30;52595;51.608;7.216;2024-01-30T04:36:50;6.94;96.05
65836;SHT30;52595;51.608;7.216;2024-01-30T04:39:15;6.88;96.28
65836;SHT30;52595;51.608;7.216;2024-01-30T04:41:41;6.85;96.27
65836;SHT30;52595;51.608;7.216;2024-01-30T04:44:06;6.78;96.45
65836;SHT30;52595;51.608;7.216;2024-01-30T04:46:32;6.70;96.65
65836;SHT30;52595;51.608;7.216;2024-01-30T04:48:59;6.67;97.02
65836;SHT30;52595;51.608;7.216;2024-01-30T04:51:24;6.73;97.28
65836;SHT30;52595;51.608;7.216;2024-01-30T04:53:50;6.77;97.31
65836;SHT30;52595;51.608;7.216;2024-01-30T04:56:15;6.78;97.00
65836;SHT30;52595;51.608;7.216;2024-01-30T04:58:40;6.91;97.00
65836;SHT30;52595;51.608;7.216;2024-01-30T05:01:06;6.89;96.85
65836;SHT30;52595;51.608;7.216;2024-01-30T05:03:34;6.91;96.48
65836;SHT30;52595;51.608;7.216;2024-01-30T05:06:00;6.98;96.40
65836;SHT30;52595;51.608;7.216;2024-01-30T05:08:25;6.92;96.12
65836;SHT30;52595;51.608;7.216;2024-01-30T05:10:51;6.99;96.29
65836;SHT30;52595;51.608;7.216;2024-01-30T05:13:16;7.01;96.31
65836;SHT30;52595;51.608;7.216;2024-01-30T05:15:41;7.05;96.50
65836;SHT30;52595;51.608;7.216;2024-01-30T05:18:07;7.08;96.22
65836;SHT30;52595;51.608;7.216;2024-01-30T05:20:32;7.11;96.22
65836;SHT30;52595;51.608;7.216;2024-01-30T05:22:58;7.09;96.14
65836;SHT30;52595;51.608;7.216;2024-01-30T05:25:23;7.07;95.94
65836;SHT30;52595;51.608;7.216;2024-01-30T05:27:49;7.15;96.17
65836;SHT30;52595;51.608;7.216;2024-01-30T05:30:15;7.21;95.86
65836;SHT30;52595;51.608;7.216;2024-01-30T05:32:40;7.16;95.95
65836;SHT30;52595;51.608;7.216;2024-01-30T05:35:06;7.11;96.00
65836;SHT30;52595;51.608;7.216;2024-01-30T05:37:33;7.04;96.06
65836;SHT30;52595;51.608;7.216;2024-01-30T05:39:58;7.09;96.40
65836;SHT30;52595;51.608;7.216;2024-01-30T05:42:24;7.05;95.93
65836;SHT30;52595;51.608;7.216;2024-01-30T05:44:50;6.98;96.30
65836;SHT30;52595;51.608;7.216;2024-01-30T05:47:15;6.97;96.30
65836;SHT30;52595;51.608;7.216;2024-01-30T05:49:41;6.94;96.69
65836;SHT30;52595;51.608;7.216;2024-01-30T05:52:06;6.88;96.99
65836;SHT30;52595;51.608;7.216;2024-01-30T05:54:32;6.84;97.05
65836;SHT30;52595;51.608;7.216;2024-01-30T05:56:57;6.80;97.14
65836;SHT30;52595;51.608;7.216;2024-01-30T05:59:22;6.78;97.15
65836;SHT30;52595;51.608;7.216;2024-01-30T06:01:48;6.74;97.37
65836;SHT30;52595;51.608;7.216;2024-01-30T06:04:14;6.73;97.31
65836;SHT30;52595;51.608;7.216;2024-01-30T06:06:40;6.80;97.51
65836;SHT30;52595;51.608;7.216;2024-01-30T06:09:06;6.74;97.09
65836;SHT30;52595;51.608;7.216;2024-01-30T06:11:33;6.67;97.14
65836;SHT30;52595;51.608;7.216;2024-01-30T06:13:58;6.74;97.81
65836;SHT30;52595;51.608;7.216;2024-01-30T06:16:24;6.77;97.65
65836;SHT30;52595;51.608;7.216;2024-01-30T06:18:49;6.71;97.65
65836;SHT30;52595;51.608;7.216;2024-01-30T06:21:14;6.70;97.66
65836;SHT30;52595;51.608;7.216;2024-01-30T06:23:40;6.78;97.69
65836;SHT30;52595;51.608;7.216;2024-01-30T06:26:06;6.70;97.52
65836;SHT30;52595;51.608;7.216;2024-01-30T06:28:32;6.70;97.76
65836;SHT30;52595;51.608;7.216;2024-01-30T06:30:57;6.66;97.77
65836;SHT30;52595;51.608;7.216;2024-01-30T06:33:23;6.64;97.77
65836;SHT30;52595;51.608;7.216;2024-01-30T06:35:48;6.61;97.81
65836;SHT30;52595;51.608;7.216;2024-01-30T06:38:13;6.61;98.04
65836;SHT30;52595;51.608;7.216;2024-01-30T06:40:41;6.66;97.92
65836;SHT30;52595;51.608;7.216;2024-01-30T06:43:07;6.67;98.08
65836;SHT30;52595;51.608;7.216;2024-01-30T06:45:33;6.70;97.96
65836;SHT30;52595;51.608;7.216;2024-01-30T06:48:00;6.71;98.11
65836;SHT30;52595;51.608;7.216;2024-01-30T06:50:25;6.76;98.09
65836;SHT30;52595;51.608;7.216;2024-01-30T06:52:51;6.89;97.82
65836;SHT30;52595;51.608;7.216;2024-01-30T06:55:16;6.88;97.26
65836;SHT30;52595;51.608;7.216;2024-01-30T06:57:42;6.88;97.51
65836;SHT30;52595;51.608;7.216;2024-01-30T07:00:07;6.98;97.48
65836;SHT30;52595;51.608;7.216;2024-01-30T07:02:33;6.98;97.03
65836;SHT30;52595;51.608;7.216;2024-01-30T07:04:58;6.99;97.00
65836;SHT30;52595;51.608;7.216;2024-01-30T07:07:24;7.01;96.90
65836;SHT30;52595;51.608;7.216;2024-01-30T07:09:49;6.99;97.06
65836;SHT30;52595;51.608;7.216;2024-01-30T07:12:17;7.02;96.93
65836;SHT30;52595;51.608;7.216;2024-01-30T07:14:43;7.02;96.98
65836;SHT30;52595;51.608;7.216;2024-01-30T07:17:08;7.02;97.02
65836;SHT30;52595;51.608;7.216;2024-01-30T07:19:34;7.07;97.01
65836;SHT30;52595;51.608;7.216;2024-01-30T07:22:00;7.12;96.93
65836;SHT30;52595;51.608;7.216;2024-01-30T07:24:26;7.18;96.90
65836;SHT30;52595;51.608;7.216;2024-01-30T07:26:52;7.28;96.94
65836;SHT30;52595;51.608;7.216;2024-01-30T07:29:17;7.32;96.43
65836;SHT30;52595;51.608;7.216;2024-01-30T07:31:43;7.42;96.49
65836;SHT30;52595;51.608;7.216;2024-01-30T07:34:09;7.60;95.78
65836;SHT30;52595;51.608;7.216;2024-01-30T07:36:34;7.69;95.39
65836;SHT30;52595;51.608;7.216;2024-01-30T07:38:59;7.73;95.10
65836;SHT30;52595;51.608;7.216;2024-01-30T07:41:25;7.76;95.01
65836;SHT30;52595;51.608;7.216;2024-01-30T07:43:50;7.74;94.94
65836;SHT30;52595;51.608;7.216;2024-01-30T07:46:16;7.77;95.00
65836;SHT30;52595;51.608;7.216;2024-01-30T07:48:41;7.77;94.95
65836;SHT30;52595;51.608;7.216;2024-01-30T07:51:07;7.83;95.11
65836;SHT30;52595;51.608;7.216;2024-01-30T07:53:32;7.87;95.00
65836;SHT30;52595;51.608;7.216;2024-01-30T07:55:58;7.91;94.68
65836;SHT30;52595;51.608;7.216;2024-01-30T07:58:23;7.98;94.56
65836;SHT30;52595;51.608;7.216;2024-01-30T08:00:49;8.07;94.32
65836;SHT30;52595;51.608;7.216;2024-01-30T08:03:14;8.14;94.02
65836;SHT30;52595;51.608;7.216;2024-01-30T08:05:41;8.16;93.80
65836;SHT30;52595;51.608;7.216;2024-01-30T08:08:07;8.21;93.78
65836;SHT30;52595;51.608;7.216;2024-01-30T08:10:32;8.24;93.70
65836;SHT30;52595;51.608;7.216;2024-01-30T08:12:58;8.36;93.26
65836;SHT30;52595;51.608;7.216;2024-01-30T08:15:23;8.41;93.13
65836;SHT30;52595;51.608;7.216;2024-01-30T08:17:49;8.47;93.17
65836;SHT30;52595;51.608;7.216;2024-01-30T08:20:15;8.52;93.21
65836;SHT30;52595;51.608;7.216;2024-01-30T08:22:41;8.62;93.01
65836;SHT30;52595;51.608;7.216;2024-01-30T08:25:07;8.72;92.73
65836;SHT30;52595;51.608;7.216;2024-01-30T08:27:33;8.82;92.46
65836;SHT30;52595;51.608;7.216;2024-01-30T08:30:01;8.95;92.22
65836;SHT30;52595;51.608;7.216;2024-01-30T08:32:26;9.03;91.94
65836;SHT30;52595;51.608;7.216;2024-01-30T08:34:52;9.08;91.85
65836;SHT30;52595;51.608;7.216;2024-01-30T08:37:17;9.11;91.88
65836;SHT30;52595;51.608;7.216;2024-01-30T08:39:43;9.19;91.53
65836;SHT30;52595;51.608;7.216;2024-01-30T08:42:09;9.20;91.53
65836;SHT30;52595;51.608;7.216;2024-01-30T08:44:34;9.22;91.39
65836;SHT30;52595;51.608;7.216;2024-01-30T08:46:59;9.30;91.32
65836;SHT30;52595;51.608;7.216;2024-01-30T08:49:25;9.30;91.37
65836;SHT30;52595;51.608;7.216;2024-01-30T08:51:50;9.40;91.21
65836;SHT30;52595;51.608;7.216;2024-01-30T08:54:16;9.48;91.09
65836;SHT30;52595;51.608;7.216;2024-01-30T08:56:41;9.57;90.71
65836;SHT30;52595;51.608;7.216;2024-01-30T08:59:06;9.64;90.68
65836;SHT30;52595;51.608;7.216;2024-01-30T09:01:32;9.74;90.31
65836;SHT30;52595;51.608;7.216;2024-01-30T09:03:57;9.91;90.12
65836;SHT30;52595;51.608;7.216;2024-01-30T09:06:23;9.97;89.80
65836;SHT30;52595;51.608;7.216;2024-01-30T09:08:49;10.04;89.62
65836;SHT30;52595;51.608;7.216;2024-01-30T09:11:15;10.15;89.24
65836;SHT30;52595;51.608;7.216;2024-01-30T09:13:41;10.17;89.40
65836;SHT30;52595;51.608;7.216;2024-01-30T09:16:06;10.18;89.44
65836;SHT30;52595;51.608;7.216;2024-01-30T09:18:32;10.25;89.23
65836;SHT30;52595;51.608;7.216;2024-01-30T09:20:57;10.22;89.23
65836;SHT30;52595;51.608;7.216;2024-01-30T09:23:23;10.25;89.32
65836;SHT30;52595;51.608;7.216;2024-01-30T09:25:49;10.25;89.24
65836;SHT30;52595;51.608;7.216;2024-01-30T09:28:14;10.24;89.42
65836;SHT30;52595;51.608;7.216;2024-01-30T09:30:40;10.31;89.34
65836;SHT30;52595;51.608;7.216;2024-01-30T09:33:06;10.41;89.01
65836;SHT30;52595;51.608;7.216;2024-01-30T09:35:31;10.44;89.04
65836;SHT30;52595;51.608;7.216;2024-01-30T09:37:57;10.49;88.80
65836;SHT30;52595;51.608;7.216;2024-01-30T09:40:23;10.49;88.95
65836;SHT30;52595;51.608;7.216;2024-01-30T09:42:50;10.56;88.58
65836;SHT30;52595;51.608;7.216;2024-01-30T09:45:19;10.61;88.71
65836;SHT30;52595;51.608;7.216;2024-01-30T09:47:45;10.63;88.67
65836;SHT30;52595;51.608;7.216;2024-01-30T09:50:13;10.75;88.17
65836;SHT30;52595;51.608;7.216;2024-01-30T09:52:40;10.84;87.98
65836;SHT30;52595;51.608;7.216;2024-01-30T09:55:06;10.90;87.94
65836;SHT30;52595;51.608;7.216;2024-01-30T09:57:33;10.93;87.89
65836;SHT30;52595;51.608;7.216;2024-01-30T09:59:59;11.04;87.77
65836;SHT30;52595;51.608;7.216;2024-01-30T10:02:24;11.17;87.10
65836;SHT30;52595;51.608;7.216;2024-01-30T10:04:50;11.27;86.95
65836;SHT30;52595;51.608;7.216;2024-01-30T10:07:17;11.36;86.59
65836;SHT30;52595;51.608;7.216;2024-01-30T10:09:42;11.43;86.52
65836;SHT30;52595;51.608;7.216;2024-01-30T10:12:11;11.51;86.58
65836;SHT30;52595;51.608;7.216;2024-01-30T10:14:40;11.64;85.90
65836;SHT30;52595;51.608;7.216;2024-01-30T10:17:09;11.77;85.49
65836;SHT30;52595;51.608;7.216;2024-01-30T10:19:36;11.88;84.80
65836;SHT30;52595;51.608;7.216;2024-01-30T10:22:02;12.08;84.41
65836;SHT30;52595;51.608;7.216;2024-01-30T10:24:27;12.21;84.27
65836;SHT30;52595;51.608;7.216;2024-01-30T10:26:54;12.26;83.95
65836;SHT30;52595;51.608;7.216;2024-01-30T10:29:20;12.43;83.56
65836;SHT30;52595;51.608;7.216;2024-01-30T10:31:45;12.50;83.31
65836;SHT30;52595;51.608;7.216;2024-01-30T10:34:12;12.48;83.34
65836;SHT30;52595;51.608;7.216;2024-01-30T10:36:40;12.49;82.86
65836;SHT30;52595;51.608;7.216;2024-01-30T10:39:08;12.46;83.21
65836;SHT30;52595;51.608;7.216;2024-01-30T10:41:41;12.52;82.84
65836;SHT30;52595;51.608;7.216;2024-01-30T10:44:09;12.59;82.54
65836;SHT30;52595;51.608;7.216;2024-01-30T10:46:35;12.69;82.08
65836;SHT30;52595;51.608;7.216;2024-01-30T10:49:03;12.75;82.09
65836;SHT30;52595;51.608;7.216;2024-01-30T10:51:29;12.77;81.82
65836;SHT30;52595;51.608;7.216;2024-01-30T10:53:56;12.79;81.97
65836;SHT30;52595;51.608;7.216;2024-01-30T10:56:22;12.84;81.98
65836;SHT30;52595;51.608;7.216;2024-01-30T10:58:50;12.93;81.59
65836;SHT30;52595;51.608;7.216;2024-01-30T11:01:16;12.93;81.50
65836;SHT30;52595;51.608;7.216;2024-01-30T11:03:42;12.97;81.47
65836;SHT30;52595;51.608;7.216;2024-01-30T11:06:11;12.86;81.48
65836;SHT30;52595;51.608;7.216;2024-01-30T11:08:39;12.83;81.75
65836;SHT30;52595;51.608;7.216;2024-01-30T11:11:09;12.79;81.86
65836;SHT30;52595;51.608;7.216;2024-01-30T11:13:34;12.72;82.09
65836;SHT30;52595;51.608;7.216;2024-01-30T11:16:04;12.67;82.26
65836;SHT30;52595;51.608;7.216;2024-01-30T11:18:31;12.67;82.52
65836;SHT30;52595;51.608;7.216;2024-01-30T11:20:57;12.72;82.26
65836;SHT30;52595;51.608;7.216;2024-01-30T11:23:23;12.66;82.38
65836;SHT30;52595;51.608;7.216;2024-01-30T11:25:48;12.70;82.51
65836;SHT30;52595;51.608;7.216;2024-01-30T11:28:15;12.56;82.79
65836;SHT30;52595;51.608;7.216;2024-01-30T11:30:44;12.56;83.05
65836;SHT30;52595;51.608;7.216;2024-01-30T11:33:13;12.49;83.26
65836;SHT30;52595;51.608;7.216;2024-01-30T11:35:49;12.57;83.23
65836;SHT30;52595;51.608;7.216;2024-01-30T11:38:15;12.48;83.64
65836;SHT30;52595;51.608;7.216;2024-01-30T11:40:41;12.35;83.92
65836;SHT30;52595;51.608;7.216;2024-01-30T11:43:07;12.33;84.15
65836;SHT30;52595;51.608;7.216;2024-01-30T11:45:35;12.38;84.19
65836;SHT30;52595;51.608;7.216;2024-01-30T11:48:00;12.32;84.57
65836;SHT30;52595;51.608;7.216;2024-01-30T11:50:29;12.36;84.19
65836;SHT30;52595;51.608;7.216;2024-01-30T11:52:54;12.33;84.55
65836;SHT30;52595;51.608;7.216;2024-01-30T11:55:20;12.28;84.62
65836;SHT30;52595;51.608;7.216;2024-01-30T11:57:45;12.29;84.83
65836;SHT30;52595;51.608;7.216;2024-01-30T12:00:17;12.22;84.92
65836;SHT30;52595;51.608;7.216;2024-01-30T12:02:44;12.22;84.96
65836;SHT30;52595;51.608;7.216;2024-01-30T12:05:14;12.24;85.01
65836;SHT30;52595;51.608;7.216;2024-01-30T12:07:39;12.28;85.09
65836;SHT30;52595;51.608;7.216;2024-01-30T12:10:04;12.25;84.97
65836;SHT30;52595;51.608;7.216;2024-01-30T12:12:31;12.30;84.92
65836;SHT30;52595;51.608;7.216;2024-01-30T12:14:56;12.22;85.20
65836;SHT30;52595;51.608;7.216;2024-01-30T12:17:32;12.14;85.54
65836;SHT30;52595;51.608;7.216;2024-01-30T12:25:07;12.17;85.91
65836;SHT30;52595;51.608;7.216;2024-01-30T12:27:33;12.14;86.01
65836;SHT30;52595;51.608;7.216;2024-01-30T12:29:59;12.11;86.09
65836;SHT30;52595;51.608;7.216;2024-01-30T12:32:24;12.12;86.13
65836;SHT30;52595;51.608;7.216;2024-01-30T12:34:50;12.14;86.33
65836;SHT30;52595;51.608;7.216;2024-01-30T12:37:15;12.19;86.32
65836;SHT30;52595;51.608;7.216;2024-01-30T12:39:45;12.22;86.43
65836;SHT30;52595;51.608;7.216;2024-01-30T12:42:10;12.18;86.50
65836;SHT30;52595;51.608;7.216;2024-01-30T12:44:36;12.25;86.63
65836;SHT30;52595;51.608;7.216;2024-01-30T12:47:04;12.22;86.59
65836;SHT30;52595;51.608;7.216;2024-01-30T12:49:30;12.18;86.69
65836;SHT30;52595;51.608;7.216;2024-01-30T12:51:55;12.18;86.74
65836;SHT30;52595;51.608;7.216;2024-01-30T12:54:22;12.18;86.82
65836;SHT30;52595;51.608;7.216;2024-01-30T12:56:48;12.18;86.91
65836;SHT30;52595;51.608;7.216;2024-01-30T12:59:13;12.21;86.84
65836;SHT30;52595;51.608;7.216;2024-01-30T13:01:39;12.18;86.96
65836;SHT30;52595;51.608;7.216;2024-01-30T13:04:04;12.17;87.07
65836;SHT30;52595;51.608;7.216;2024-01-30T13:06:30;12.18;87.19
65836;SHT30;52595;51.608;7.216;2024-01-30T13:08:55;12.15;87.32
65836;SHT30;52595;51.608;7.216;2024-01-30T13:11:20;12.15;87.35
65836;SHT30;52595;51.608;7.216;2024-01-30T13:13:46;12.12;87.51
65836;SHT30;52595;51.608;7.216;2024-01-30T13:16:11;12.15;87.59
65836;SHT30;52595;51.608;7.216;2024-01-30T13:18:37;12.17;87.52
65836;SHT30;52595;51.608;7.216;2024-01-30T13:21:02;12.18;87.56
65836;SHT30;52595;51.608;7.216;2024-01-30T13:23:28;12.19;87.55
65836;SHT30;52595;51.608;7.216;2024-01-30T13:25:53;12.12;87.74
65836;SHT30;52595;51.608;7.216;2024-01-30T13:28:22;12.11;87.83
65836;SHT30;52595;51.608;7.216;2024-01-30T13:30:48;12.11;87.89
65836;SHT30;52595;51.608;7.216;2024-01-30T13:33:13;12.06;88.17
65836;SHT30;52595;51.608;7.216;2024-01-30T13:35:38;11.99;88.25
65836;SHT30;52595;51.608;7.216;2024-01-30T13:38:04;11.99;88.42
65836;SHT30;52595;51.608;7.216;2024-01-30T13:40:29;11.98;88.42
65836;SHT30;52595;51.608;7.216;2024-01-30T13:42:55;12.02;87.66
65836;SHT30;52595;51.608;7.216;2024-01-30T13:45:20;12.06;87.44
65836;SHT30;52595;51.608;7.216;2024-01-30T13:47:46;12.05;87.66
65836;SHT30;52595;51.608;7.216;2024-01-30T13:50:11;12.12;87.75
65836;SHT30;52595;51.608;7.216;2024-01-30T13:52:40;12.11;87.75
65836;SHT30;52595;51.608;7.216;2024-01-30T13:55:06;12.08;87.83
65836;SHT30;52595;51.608;7.216;2024-01-30T13:57:31;12.08;88.00
65836;SHT30;52595;51.608;7.216;2024-01-30T14:00:00;12.17;88.00
65836;SHT30;52595;51.608;7.216;2024-01-30T14:02:25;12.11;88.26
65836;SHT30;52595;51.608;7.216;2024-01-30T14:04:51;12.02;87.78
65836;SHT30;52595;51.608;7.216;2024-01-30T14:07:16;12.04;87.88
65836;SHT30;52595;51.608;7.216;2024-01-30T14:09:44;11.98;88.01
65836;SHT30;52595;51.608;7.216;2024-01-30T14:12:09;11.97;88.10
65836;SHT30;52595;51.608;7.216;2024-01-30T14:14:35;11.97;87.96
65836;SHT30;52595;51.608;7.216;2024-01-30T14:17:00;11.97;87.92
65836;SHT30;52595;51.608;7.216;2024-01-30T14:19:26;11.97;87.78
65836;SHT30;52595;51.608;7.216;2024-01-30T14:21:51;11.94;87.82
65836;SHT30;52595;51.608;7.216;2024-01-30T14:24:17;11.98;87.95
65836;SHT30;52595;51.608;7.216;2024-01-30T14:26:42;11.97;88.04
65836;SHT30;52595;51.608;7.216;2024-01-30T14:29:08;12.02;88.01
65836;SHT30;52595;51.608;7.216;2024-01-30T14:31:33;12.02;88.04
65836;SHT30;52595;51.608;7.216;2024-01-30T14:33:58;12.02;88.04
65836;SHT30;52595;51.608;7.216;2024-01-30T14:36:24;12.05;88.11
65836;SHT30;52595;51.608;7.216;2024-01-30T14:38:53;12.01;88.17
65836;SHT30;52595;51.608;7.216;2024-01-30T14:41:19;12.01;88.36
65836;SHT30;52595;51.608;7.216;2024-01-30T14:43:44;12.04;88.30
65836;SHT30;52595;51.608;7.216;2024-01-30T14:46:10;12.04;88.34
65836;SHT30;52595;51.608;7.216;2024-01-30T14:48:35;12.06;88.10
65836;SHT30;52595;51.608;7.216;2024-01-30T14:51:00;12.01;88.32
65836;SHT30;52595;51.608;7.216;2024-01-30T14:53:26;12.04;88.34
65836;SHT30;52595;51.608;7.216;2024-01-30T14:55:52;12.04;88.32
65836;SHT30;52595;51.608;7.216;2024-01-30T14:58:18;11.99;88.39
65836;SHT30;52595;51.608;7.216;2024-01-30T15:00:43;12.01;88.38
65836;SHT30;52595;51.608;7.216;2024-01-30T15:03:09;12.02;88.09
65836;SHT30;52595;51.608;7.216;2024-01-30T15:05:34;11.99;87.80
65836;SHT30;52595;51.608;7.216;2024-01-30T15:08:00;12.01;87.68
65836;SHT30;52595;51.608;7.216;2024-01-30T15:10:25;11.99;87.34
65836;SHT30;52595;51.608;7.216;2024-01-30T15:12:51;11.94;86.16
65836;SHT30;52595;51.608;7.216;2024-01-30T15:15:16;11.81;85.76
65836;SHT30;52595;51.608;7.216;2024-01-30T15:17:42;11.68;85.08
65836;SHT30;52595;51.608;7.216;2024-01-30T15:20:07;11.61;85.14
65836;SHT30;52595;51.608;7.216;2024-01-30T15:22:33;11.54;84.32
65836;SHT30;52595;51.608;7.216;2024-01-30T15:24:58;11.54;83.99
65836;SHT30;52595;51.608;7.216;2024-01-30T15:27:23;11.50;83.88
65836;SHT30;52595;51.608;7.216;2024-01-30T15:29:50;11.38;83.79
65836;SHT30;52595;51.608;7.216;2024-01-30T15:32:15;11.34;83.80
65836;SHT30;52595;51.608;7.216;2024-01-30T15:34:41;11.30;83.93
65836;SHT30;52595;51.608;7.216;2024-01-30T15:37:06;11.27;83.88